sensor_id;sensor_type;location;lat;lon;timestamp;temperature;humidity
33815;DHT22;20121;51.910;8.406;2023-07-13T00:02:21;18.30;99.90
33815;DHT22;20121;51.910;8.406;2023-07-13T00:04:47;18.30;99.90
33815;DHT22;20121;51.910;8.406;2023-07-13T00:07:13;18.30;99.90
33815;DHT22;20121;51.910;8.406;2023-07-13T00:09:40;18.30;99.90
33815;DHT22;20121;51.910;8.406;2023-07-13T00:12:34;18.30;99.90
33815;DHT22;20121;51.910;8.406;2023-07-13T00:15:10;18.20;99.90
33815;DHT22;20121;51.910;8.406;2023-07-13T00:17:36;18.20;99.90
33815;DHT22;20121;51.910;8.406;2023-07-13T00:20:04;18.20;99.90
33815;DHT22;20121;51.910;8.406;2023-07-13T00:22:30;18.10;99.90
33815;DHT22;20121;51.910;8.406;2023-07-13T00:24:56;18.10;99.90
33815;DHT22;20121;51.910;8.406;2023-07-13T00:27:22;18.10;99.90
33815;DHT22;20121;51.910;8.406;2023-07-13T00:29:48;18.00;99.90
33815;DHT22;20121;51.910;8.406;2023-07-13T00:32:14;18.00;99.90
33815;DHT22;20121;51.910;8.406;2023-07-13T00:34:39;17.90;99.90
33815;DHT22;20121;51.910;8.406;2023-07-13T00:37:06;17.90;99.90
33815;DHT22;20121;51.910;8.406;2023-07-13T00:39:36;17.90;99.90
33815;DHT22;20121;51.910;8.406;2023-07-13T00:42:02;17.90;99.90
33815;DHT22;20121;51.910;8.406;2023-07-13T00:44:28;17.90;99.90
33815;DHT22;20121;51.910;8.406;2023-07-13T00:46:54;17.80;99.90
33815;DHT22;20121;51.910;8.406;2023-07-13T00:49:23;17.80;99.90
33815;DHT22;20121;51.910;8.406;2023-07-13T00:51:53;17.80;99.90
33815;DHT22;20121;51.910;8.406;2023-07-13T00:54:26;17.80;99.90
33815;DHT22;20121;51.910;8.406;2023-07-13T00:56:55;17.80;99.90
33815;DHT22;20121;51.910;8.406;2023-07-13T00:59:23;17.80;99.90
33815;DHT22;20121;51.910;8.406;2023-07-13T01:01:49;17.80;99.90
33815;DHT22;20121;51.910;8.406;2023-07-13T01:04:16;17.80;99.90
33815;DHT22;20121;51.910;8.406;2023-07-13T01:06:42;17.80;99.90
33815;DHT22;20121;51.910;8.406;2023-07-13T01:09:10;17.80;99.90
33815;DHT22;20121;51.910;8.406;2023-07-13T01:11:36;17.90;99.90
33815;DHT22;20121;51.910;8.406;2023-07-13T01:14:03;17.80;99.90
33815;DHT22;20121;51.910;8.406;2023-07-13T01:16:31;17.80;99.90
33815;DHT22;20121;51.910;8.406;2023-07-13T01:18:58;17.80;99.90
33815;DHT22;20121;51.910;8.406;2023-07-13T01:21:24;17.80;99.90
33815;DHT22;20121;51.910;8.406;2023-07-13T01:23:51;17.80;99.90
33815;DHT22;20121;51.910;8.406;2023-07-13T01:26:16;17.80;99.90
33815;DHT22;20121;51.910;8.406;2023-07-13T01:28:43;17.90;99.90
33815;DHT22;20121;51.910;8.406;2023-07-13T01:31:09;17.90;99.90
33815;DHT22;20121;51.910;8.406;2023-07-13T01:33:37;17.90;99.90
33815;DHT22;20121;51.910;8.406;2023-07-13T01:36:03;17.90;99.90
33815;DHT22;20121;51.910;8.406;2023-07-13T01:38:29;18.00;99.90
33815;DHT22;20121;51.910;8.406;2023-07-13T01:40:54;18.00;99.90
33815;DHT22;20121;51.910;8.406;2023-07-13T01:43:20;18.00;99.90
33815;DHT22;20121;51.910;8.406;2023-07-13T01:45:46;18.00;99.90
33815;DHT22;20121;51.910;8.406;2023-07-13T01:48:12;18.00;99.90
33815;DHT22;20121;51.910;8.406;2023-07-13T01:50:38;18.00;99.90
33815;DHT22;20121;51.910;8.406;2023-07-13T01:53:04;17.90;99.90
33815;DHT22;20121;51.910;8.406;2023-07-13T01:55:31;17.90;99.90
33815;DHT22;20121;51.910;8.406;2023-07-13T01:57:57;17.90;99.90
33815;DHT22;20121;51.910;8.406;2023-07-13T02:00:22;17.90;99.90
33815;DHT22;20121;51.910;8.406;2023-07-13T02:02:48;17.90;99.90
33815;DHT22;20121;51.910;8.406;2023-07-13T02:05:14;17.90;99.90
33815;DHT22;20121;51.910;8.406;2023-07-13T02:07:40;17.90;99.90
33815;DHT22;20121;51.910;8.406;2023-07-13T02:10:07;17.80;99.90
33815;DHT22;20121;51.910;8.406;2023-07-13T02:12:34;17.80;99.90
33815;DHT22;20121;51.910;8.406;2023-07-13T02:15:00;17.70;99.90
33815;DHT22;20121;51.910;8.406;2023-07-13T02:17:26;17.70;99.90
33815;DHT22;20121;51.910;8.406;2023-07-13T02:19:52;17.70;99.90
33815;DHT22;20121;51.910;8.406;2023-07-13T02:22:18;17.60;99.90
33815;DHT22;20121;51.910;8.406;2023-07-13T02:24:44;17.60;99.90
33815;DHT22;20121;51.910;8.406;2023-07-13T02:27:09;17.60;99.90
33815;DHT22;20121;51.910;8.406;2023-07-13T02:29:35;17.60;99.90
33815;DHT22;20121;51.910;8.406;2023-07-13T02:32:00;17.50;99.90
33815;DHT22;20121;51.910;8.406;2023-07-13T02:34:26;17.50;99.90
33815;DHT22;20121;51.910;8.406;2023-07-13T02:36:52;17.50;99.90
33815;DHT22;20121;51.910;8.406;2023-07-13T02:39:17;17.50;99.90
33815;DHT22;20121;51.910;8.406;2023-07-13T02:41:43;17.20;99.90
33815;DHT22;20121;51.910;8.406;2023-07-13T02:44:09;17.40;99.90
33815;DHT22;20121;51.910;8.406;2023-07-13T02:46:36;17.40;99.90
33815;DHT22;20121;51.910;8.406;2023-07-13T02:49:02;17.40;99.90
33815;DHT22;20121;51.910;8.406;2023-07-13T02:51:28;17.10;99.90
33815;DHT22;20121;51.910;8.406;2023-07-13T02:53:54;17.30;99.90
33815;DHT22;20121;51.910;8.406;2023-07-13T02:56:25;17.30;99.90
33815;DHT22;20121;51.910;8.406;2023-07-13T02:58:51;16.10;99.90
33815;DHT22;20121;51.910;8.406;2023-07-13T03:01:17;17.20;99.90
33815;DHT22;20121;51.910;8.406;2023-07-13T03:03:45;17.10;99.90
33815;DHT22;20121;51.910;8.406;2023-07-13T03:06:11;17.10;99.90
33815;DHT22;20121;51.910;8.406;2023-07-13T03:08:37;17.10;99.90
33815;DHT22;20121;51.910;8.406;2023-07-13T03:11:08;17.10;99.90
33815;DHT22;20121;51.910;8.406;2023-07-13T03:13:34;16.90;99.90
33815;DHT22;20121;51.910;8.406;2023-07-13T03:16:00;17.00;99.90
33815;DHT22;20121;51.910;8.406;2023-07-13T03:18:27;17.00;99.90
33815;DHT22;20121;51.910;8.406;2023-07-13T03:20:53;16.90;99.90
33815;DHT22;20121;51.910;8.406;2023-07-13T03:23:20;17.10;99.90
33815;DHT22;20121;51.910;8.406;2023-07-13T03:25:45;16.90;99.90
33815;DHT22;20121;51.910;8.406;2023-07-13T03:28:12;16.80;99.90
33815;DHT22;20121;51.910;8.406;2023-07-13T03:30:38;16.80;99.90
33815;DHT22;20121;51.910;8.406;2023-07-13T03:33:04;16.80;99.90
33815;DHT22;20121;51.910;8.406;2023-07-13T03:35:29;16.80;99.90
33815;DHT22;20121;51.910;8.406;2023-07-13T03:37:55;16.70;99.90
33815;DHT22;20121;51.910;8.406;2023-07-13T03:40:21;16.70;99.90
33815;DHT22;20121;51.910;8.406;2023-07-13T03:42:47;16.60;99.90
33815;DHT22;20121;51.910;8.406;2023-07-13T03:45:12;16.70;99.90
33815;DHT22;20121;51.910;8.406;2023-07-13T03:47:38;16.60;99.90
33815;DHT22;20121;51.910;8.406;2023-07-13T03:50:04;16.60;99.90
33815;DHT22;20121;51.910;8.406;2023-07-13T03:52:30;16.50;99.90
33815;DHT22;20121;51.910;8.406;2023-07-13T03:54:56;16.50;99.90
33815;DHT22;20121;51.910;8.406;2023-07-13T03:57:21;16.50;99.90
33815;DHT22;20121;51.910;8.406;2023-07-13T03:59:48;16.50;99.90
33815;DHT22;20121;51.910;8.406;2023-07-13T04:02:13;16.40;99.90
33815;DHT22;20121;51.910;8.406;2023-07-13T04:04:39;16.40;99.90
33815;DHT22;20121;51.910;8.406;2023-07-13T04:07:06;16.30;99.90
33815;DHT22;20121;51.910;8.406;2023-07-13T04:09:34;16.20;99.90
33815;DHT22;20121;51.910;8.406;2023-07-13T04:11:59;16.20;99.90
33815;DHT22;20121;51.910;8.406;2023-07-13T04:14:25;16.20;99.90
33815;DHT22;20121;51.910;8.406;2023-07-13T04:16:51;16.10;99.90
33815;DHT22;20121;51.910;8.406;2023-07-13T04:19:17;16.10;99.90
33815;DHT22;20121;51.910;8.406;2023-07-13T04:21:42;16.10;99.90
33815;DHT22;20121;51.910;8.406;2023-07-13T04:24:08;16.10;99.90
33815;DHT22;20121;51.910;8.406;2023-07-13T04:26:34;16.20;99.90
33815;DHT22;20121;51.910;8.406;2023-07-13T04:29:02;16.20;99.90
33815;DHT22;20121;51.910;8.406;2023-07-13T04:31:29;16.50;99.90
33815;DHT22;20121;51.910;8.406;2023-07-13T04:33:55;16.20;99.90
33815;DHT22;20121;51.910;8.406;2023-07-13T04:36:21;16.20;99.90
33815;DHT22;20121;51.910;8.406;2023-07-13T04:38:47;16.30;99.90
33815;DHT22;20121;51.910;8.406;2023-07-13T04:41:13;16.30;99.90
33815;DHT22;20121;51.910;8.406;2023-07-13T04:43:40;16.30;99.90
33815;DHT22;20121;51.910;8.406;2023-07-13T04:46:09;16.30;99.90
33815;DHT22;20121;51.910;8.406;2023-07-13T04:48:35;16.30;99.90
33815;DHT22;20121;51.910;8.406;2023-07-13T04:51:01;16.30;99.90
33815;DHT22;20121;51.910;8.406;2023-07-13T04:53:28;16.30;99.90
33815;DHT22;20121;51.910;8.406;2023-07-13T04:55:54;16.40;99.90
33815;DHT22;20121;51.910;8.406;2023-07-13T04:58:19;16.50;99.90
33815;DHT22;20121;51.910;8.406;2023-07-13T05:00:47;16.50;99.90
33815;DHT22;20121;51.910;8.406;2023-07-13T05:03:13;16.60;99.90
33815;DHT22;20121;51.910;8.406;2023-07-13T05:05:38;16.70;99.90
33815;DHT22;20121;51.910;8.406;2023-07-13T05:08:04;16.90;99.90
33815;DHT22;20121;51.910;8.406;2023-07-13T05:10:29;17.00;99.90
33815;DHT22;20121;51.910;8.406;2023-07-13T05:12:55;17.10;99.90
33815;DHT22;20121;51.910;8.406;2023-07-13T05:15:22;17.30;99.90
33815;DHT22;20121;51.910;8.406;2023-07-13T05:17:49;17.40;99.90
33815;DHT22;20121;51.910;8.406;2023-07-13T05:20:15;18.00;99.90
33815;DHT22;20121;51.910;8.406;2023-07-13T05:22:42;17.80;99.90
33815;DHT22;20121;51.910;8.406;2023-07-13T05:27:34;18.10;99.90
33815;DHT22;20121;51.910;8.406;2023-07-13T05:30:01;18.30;99.90
33815;DHT22;20121;51.910;8.406;2023-07-13T05:32:27;18.50;99.90
33815;DHT22;20121;51.910;8.406;2023-07-13T05:34:52;18.50;99.90
33815;DHT22;20121;51.910;8.406;2023-07-13T05:37:18;18.70;99.90
33815;DHT22;20121;51.910;8.406;2023-07-13T05:39:44;18.80;99.90
33815;DHT22;20121;51.910;8.406;2023-07-13T05:42:09;18.90;99.90
33815;DHT22;20121;51.910;8.406;2023-07-13T05:44:35;19.00;99.90
33815;DHT22;20121;51.910;8.406;2023-07-13T05:47:00;19.10;99.90
33815;DHT22;20121;51.910;8.406;2023-07-13T05:49:26;19.20;99.90
33815;DHT22;20121;51.910;8.406;2023-07-13T05:51:52;19.20;99.90
33815;DHT22;20121;51.910;8.406;2023-07-13T05:54:18;19.30;99.90
33815;DHT22;20121;51.910;8.406;2023-07-13T05:56:44;19.40;99.90
33815;DHT22;20121;51.910;8.406;2023-07-13T05:59:09;19.40;99.60
33815;DHT22;20121;51.910;8.406;2023-07-13T06:01:35;19.80;99.90
33815;DHT22;20121;51.910;8.406;2023-07-13T06:04:00;19.50;99.60
33815;DHT22;20121;51.910;8.406;2023-07-13T06:06:26;19.50;99.90
33815;DHT22;20121;51.910;8.406;2023-07-13T06:08:52;19.60;99.90
33815;DHT22;20121;51.910;8.406;2023-07-13T06:11:21;19.70;99.90
33815;DHT22;20121;51.910;8.406;2023-07-13T06:13:47;19.70;99.40
33815;DHT22;20121;51.910;8.406;2023-07-13T06:16:14;19.80;99.50
33815;DHT22;20121;51.910;8.406;2023-07-13T06:18:40;19.60;99.40
33815;DHT22;20121;51.910;8.406;2023-07-13T06:21:14;19.50;99.60
33815;DHT22;20121;51.910;8.406;2023-07-13T06:23:40;19.40;99.90
33815;DHT22;20121;51.910;8.406;2023-07-13T06:26:07;19.30;99.90
33815;DHT22;20121;51.910;8.406;2023-07-13T06:28:33;19.20;99.90
33815;DHT22;20121;51.910;8.406;2023-07-13T06:30:59;19.50;99.90
33815;DHT22;20121;51.910;8.406;2023-07-13T06:33:25;19.30;99.90
33815;DHT22;20121;51.910;8.406;2023-07-13T06:35:51;19.30;99.90
33815;DHT22;20121;51.910;8.406;2023-07-13T06:38:17;19.40;99.90
33815;DHT22;20121;51.910;8.406;2023-07-13T06:40:42;20.00;99.90
33815;DHT22;20121;51.910;8.406;2023-07-13T06:43:08;19.60;99.90
33815;DHT22;20121;51.910;8.406;2023-07-13T06:45:42;19.70;99.90
33815;DHT22;20121;51.910;8.406;2023-07-13T06:48:07;19.90;99.90
33815;DHT22;20121;51.910;8.406;2023-07-13T06:50:33;19.90;99.90
33815;DHT22;20121;51.910;8.406;2023-07-13T06:52:59;20.10;99.90
33815;DHT22;20121;51.910;8.406;2023-07-13T06:55:25;20.10;99.90
33815;DHT22;20121;51.910;8.406;2023-07-13T06:57:51;20.20;99.90
33815;DHT22;20121;51.910;8.406;2023-07-13T07:00:17;20.20;99.90
33815;DHT22;20121;51.910;8.406;2023-07-13T07:02:43;20.60;99.90
33815;DHT22;20121;51.910;8.406;2023-07-13T07:05:08;20.30;99.90
33815;DHT22;20121;51.910;8.406;2023-07-13T07:07:34;20.40;99.90
33815;DHT22;20121;51.910;8.406;2023-07-13T07:10:00;20.40;99.90
33815;DHT22;20121;51.910;8.406;2023-07-13T07:12:26;20.50;99.90
33815;DHT22;20121;51.910;8.406;2023-07-13T07:14:51;20.50;99.90
33815;DHT22;20121;51.910;8.406;2023-07-13T07:17:17;20.60;99.90
33815;DHT22;20121;51.910;8.406;2023-07-13T07:19:43;20.60;99.90
33815;DHT22;20121;51.910;8.406;2023-07-13T07:22:08;20.60;99.90
33815;DHT22;20121;51.910;8.406;2023-07-13T07:24:34;20.60;99.90
33815;DHT22;20121;51.910;8.406;2023-07-13T07:26:59;20.50;99.90
33815;DHT22;20121;51.910;8.406;2023-07-13T07:29:25;20.50;99.90
33815;DHT22;20121;51.910;8.406;2023-07-13T07:31:53;20.60;99.90
33815;DHT22;20121;51.910;8.406;2023-07-13T07:34:19;20.60;99.90
33815;DHT22;20121;51.910;8.406;2023-07-13T07:36:45;20.60;99.90
33815;DHT22;20121;51.910;8.406;2023-07-13T07:39:10;20.70;99.90
33815;DHT22;20121;51.910;8.406;2023-07-13T07:41:37;21.00;99.90
33815;DHT22;20121;51.910;8.406;2023-07-13T07:44:02;21.00;99.90
33815;DHT22;20121;51.910;8.406;2023-07-13T07:46:29;21.10;99.60
33815;DHT22;20121;51.910;8.406;2023-07-13T07:48:55;21.10;99.80
33815;DHT22;20121;51.910;8.406;2023-07-13T07:51:21;21.00;99.90
33815;DHT22;20121;51.910;8.406;2023-07-13T07:53:47;20.80;99.30
33815;DHT22;20121;51.910;8.406;2023-07-13T07:56:13;20.80;99.90
33815;DHT22;20121;51.910;8.406;2023-07-13T07:58:38;20.80;99.90
33815;DHT22;20121;51.910;8.406;2023-07-13T08:01:07;20.80;99.90
33815;DHT22;20121;51.910;8.406;2023-07-13T08:03:32;21.10;99.90
33815;DHT22;20121;51.910;8.406;2023-07-13T08:05:58;20.80;99.90
33815;DHT22;20121;51.910;8.406;2023-07-13T08:08:25;20.40;99.90
33815;DHT22;20121;51.910;8.406;2023-07-13T08:10:50;20.80;99.90
33815;DHT22;20121;51.910;8.406;2023-07-13T08:13:16;20.90;99.90
33815;DHT22;20121;51.910;8.406;2023-07-13T08:15:42;21.30;99.90
33815;DHT22;20121;51.910;8.406;2023-07-13T08:18:07;21.20;99.90
33815;DHT22;20121;51.910;8.406;2023-07-13T08:20:37;21.90;99.90
33815;DHT22;20121;51.910;8.406;2023-07-13T08:23:03;21.50;99.50
33815;DHT22;20121;51.910;8.406;2023-07-13T08:25:29;22.00;99.90
33815;DHT22;20121;51.910;8.406;2023-07-13T08:27:55;21.70;98.60
33815;DHT22;20121;51.910;8.406;2023-07-13T08:30:20;21.70;98.60
33815;DHT22;20121;51.910;8.406;2023-07-13T08:32:46;21.80;98.50
33815;DHT22;20121;51.910;8.406;2023-07-13T08:35:12;21.90;98.30
33815;DHT22;20121;51.910;8.406;2023-07-13T08:37:39;21.70;98.20
33815;DHT22;20121;51.910;8.406;2023-07-13T08:40:05;21.70;98.40
33815;DHT22;20121;51.910;8.406;2023-07-13T08:43:08;21.90;98.30
33815;DHT22;20121;51.910;8.406;2023-07-13T08:45:30;22.00;98.60
33815;DHT22;20121;51.910;8.406;2023-07-13T08:48:10;22.20;98.00
33815;DHT22;20121;51.910;8.406;2023-07-13T08:51:02;22.50;99.80
33815;DHT22;20121;51.910;8.406;2023-07-13T08:53:36;22.20;97.30
33815;DHT22;20121;51.910;8.406;2023-07-13T08:56:07;22.30;97.10
33815;DHT22;20121;51.910;8.406;2023-07-13T08:58:36;22.20;97.00
33815;DHT22;20121;51.910;8.406;2023-07-13T09:01:14;22.00;99.90
33815;DHT22;20121;51.910;8.406;2023-07-13T09:03:57;22.30;96.90
33815;DHT22;20121;51.910;8.406;2023-07-13T09:06:43;22.20;99.90
33815;DHT22;20121;51.910;8.406;2023-07-13T09:09:32;22.70;99.90
33815;DHT22;20121;51.910;8.406;2023-07-13T09:12:02;22.40;96.20
33815;DHT22;20121;51.910;8.406;2023-07-13T09:14:41;22.40;96.60
33815;DHT22;20121;51.910;8.406;2023-07-13T09:17:25;22.50;99.90
33815;DHT22;20121;51.910;8.406;2023-07-13T09:19:58;22.60;96.30
33815;DHT22;20121;51.910;8.406;2023-07-13T09:22:26;22.80;96.30
33815;DHT22;20121;51.910;8.406;2023-07-13T09:25:02;22.90;96.20
33815;DHT22;20121;51.910;8.406;2023-07-13T09:27:35;23.00;99.90
33815;DHT22;20121;51.910;8.406;2023-07-13T09:32:44;22.80;94.60
33815;DHT22;20121;51.910;8.406;2023-07-13T09:35:15;23.80;95.80
33815;DHT22;20121;51.910;8.406;2023-07-13T09:37:44;22.80;94.90
33815;DHT22;20121;51.910;8.406;2023-07-13T09:40:17;22.90;95.40
33815;DHT22;20121;51.910;8.406;2023-07-13T09:42:46;22.50;97.20
33815;DHT22;20121;51.910;8.406;2023-07-13T09:45:26;22.70;95.10
33815;DHT22;20121;51.910;8.406;2023-07-13T09:47:59;22.80;96.00
33815;DHT22;20121;51.910;8.406;2023-07-13T09:50:25;22.90;95.30
33815;DHT22;20121;51.910;8.406;2023-07-13T09:52:51;23.00;95.80
33815;DHT22;20121;51.910;8.406;2023-07-13T09:57:48;23.00;99.90
33815;DHT22;20121;51.910;8.406;2023-07-13T10:00:25;23.10;94.30
33815;DHT22;20121;51.910;8.406;2023-07-13T10:03:19;23.10;99.90
33815;DHT22;20121;51.910;8.406;2023-07-13T10:05:46;23.20;94.10
33815;DHT22;20121;51.910;8.406;2023-07-13T10:08:27;23.30;99.90
33815;DHT22;20121;51.910;8.406;2023-07-13T10:13:43;23.40;94.30
33815;DHT22;20121;51.910;8.406;2023-07-13T10:16:09;23.40;94.30
33815;DHT22;20121;51.910;8.406;2023-07-13T10:18:48;23.50;94.40
33815;DHT22;20121;51.910;8.406;2023-07-13T10:21:16;23.90;99.90
33815;DHT22;20121;51.910;8.406;2023-07-13T10:23:43;23.50;93.00
33815;DHT22;20121;51.910;8.406;2023-07-13T10:26:17;23.40;93.70
33815;DHT22;20121;51.910;8.406;2023-07-13T10:28:45;23.50;99.90
33815;DHT22;20121;51.910;8.406;2023-07-13T10:31:14;23.50;93.80
33815;DHT22;20121;51.910;8.406;2023-07-13T10:33:40;23.60;93.30
33815;DHT22;20121;51.910;8.406;2023-07-13T10:38:51;23.80;93.30
33815;DHT22;20121;51.910;8.406;2023-07-13T10:41:21;24.20;98.60
33815;DHT22;20121;51.910;8.406;2023-07-13T10:43:51;23.80;92.20
33815;DHT22;20121;51.910;8.406;2023-07-13T10:46:20;23.70;93.00
33815;DHT22;20121;51.910;8.406;2023-07-13T10:48:51;23.80;92.70
33815;DHT22;20121;51.910;8.406;2023-07-13T10:51:18;23.70;92.50
33815;DHT22;20121;51.910;8.406;2023-07-13T10:53:47;23.80;93.30
33815;DHT22;20121;51.910;8.406;2023-07-13T10:56:24;23.80;92.50
33815;DHT22;20121;51.910;8.406;2023-07-13T10:59:14;23.80;92.30
33815;DHT22;20121;51.910;8.406;2023-07-13T11:04:29;23.70;92.90
33815;DHT22;20121;51.910;8.406;2023-07-13T11:07:16;23.60;92.10
33815;DHT22;20121;51.910;8.406;2023-07-13T11:09:43;23.50;93.00
33815;DHT22;20121;51.910;8.406;2023-07-13T11:18:02;23.20;94.30
33815;DHT22;20121;51.910;8.406;2023-07-13T11:25:35;23.20;93.70
33815;DHT22;20121;51.910;8.406;2023-07-13T11:28:11;23.20;93.20
33815;DHT22;20121;51.910;8.406;2023-07-13T11:33:17;23.30;93.10
33815;DHT22;20121;51.910;8.406;2023-07-13T11:38:48;23.40;93.50
33815;DHT22;20121;51.910;8.406;2023-07-13T11:43:44;23.40;92.60
33815;DHT22;20121;51.910;8.406;2023-07-13T11:46:21;23.20;92.50
33815;DHT22;20121;51.910;8.406;2023-07-13T11:48:48;23.10;93.00
33815;DHT22;20121;51.910;8.406;2023-07-13T11:51:31;23.10;93.70
33815;DHT22;20121;51.910;8.406;2023-07-13T11:54:05;23.30;93.60
33815;DHT22;20121;51.910;8.406;2023-07-13T11:56:33;23.50;94.00
33815;DHT22;20121;51.910;8.406;2023-07-13T11:59:05;23.70;92.80
33815;DHT22;20121;51.910;8.406;2023-07-13T12:01:32;23.50;94.70
33815;DHT22;20121;51.910;8.406;2023-07-13T12:04:02;23.60;92.40
33815;DHT22;20121;51.910;8.406;2023-07-13T12:06:31;23.60;92.80
33815;DHT22;20121;51.910;8.406;2023-07-13T12:09:00;23.70;93.00
33815;DHT22;20121;51.910;8.406;2023-07-13T12:11:29;24.30;93.00
33815;DHT22;20121;51.910;8.406;2023-07-13T12:13:55;23.90;91.00
33815;DHT22;20121;51.910;8.406;2023-07-13T12:16:32;23.90;90.80
33815;DHT22;20121;51.910;8.406;2023-07-13T12:19:00;23.80;91.20
33815;DHT22;20121;51.910;8.406;2023-07-13T12:21:37;23.90;91.60
33815;DHT22;20121;51.910;8.406;2023-07-13T12:24:03;23.90;91.90
33815;DHT22;20121;51.910;8.406;2023-07-13T12:26:31;24.10;91.70
33815;DHT22;20121;51.910;8.406;2023-07-13T12:29:00;24.10;91.00
33815;DHT22;20121;51.910;8.406;2023-07-13T12:34:20;24.00;91.20
33815;DHT22;20121;51.910;8.406;2023-07-13T12:36:47;24.00;91.30
33815;DHT22;20121;51.910;8.406;2023-07-13T12:39:22;24.00;91.50
33815;DHT22;20121;51.910;8.406;2023-07-13T12:41:50;24.00;90.70
33815;DHT22;20121;51.910;8.406;2023-07-13T12:44:31;24.00;91.10
33815;DHT22;20121;51.910;8.406;2023-07-13T12:47:03;24.00;91.60
33815;DHT22;20121;51.910;8.406;2023-07-13T12:49:32;24.10;90.80
33815;DHT22;20121;51.910;8.406;2023-07-13T12:52:04;24.10;88.90
33815;DHT22;20121;51.910;8.406;2023-07-13T12:54:39;24.10;90.00
33815;DHT22;20121;51.910;8.406;2023-07-13T12:57:05;24.10;90.70
33815;DHT22;20121;51.910;8.406;2023-07-13T12:59:34;24.10;88.30
33815;DHT22;20121;51.910;8.406;2023-07-13T13:02:02;24.30;88.60
33815;DHT22;20121;51.910;8.406;2023-07-13T13:04:28;24.30;89.10
33815;DHT22;20121;51.910;8.406;2023-07-13T13:07:02;24.30;87.00
33815;DHT22;20121;51.910;8.406;2023-07-13T13:09:28;24.20;89.00
33815;DHT22;20121;51.910;8.406;2023-07-13T13:11:54;24.20;85.00
33815;DHT22;20121;51.910;8.406;2023-07-13T13:14:20;24.20;85.70
33815;DHT22;20121;51.910;8.406;2023-07-13T13:16:48;24.20;87.80
33815;DHT22;20121;51.910;8.406;2023-07-13T13:19:21;24.30;89.90
33815;DHT22;20121;51.910;8.406;2023-07-13T13:21:49;24.30;86.00
33815;DHT22;20121;51.910;8.406;2023-07-13T13:24:20;24.30;85.50
33815;DHT22;20121;51.910;8.406;2023-07-13T13:26:47;24.10;87.10
33815;DHT22;20121;51.910;8.406;2023-07-13T13:29:22;24.20;88.70
33815;DHT22;20121;51.910;8.406;2023-07-13T13:31:50;24.30;85.70
33815;DHT22;20121;51.910;8.406;2023-07-13T13:34:17;24.30;87.10
33815;DHT22;20121;51.910;8.406;2023-07-13T13:36:45;24.40;86.90
33815;DHT22;20121;51.910;8.406;2023-07-13T13:39:19;24.50;89.20
33815;DHT22;20121;51.910;8.406;2023-07-13T13:41:45;24.50;95.50
33815;DHT22;20121;51.910;8.406;2023-07-13T13:44:12;24.50;88.60
33815;DHT22;20121;51.910;8.406;2023-07-13T13:46:38;24.40;88.50
33815;DHT22;20121;51.910;8.406;2023-07-13T13:49:04;24.30;89.80
33815;DHT22;20121;51.910;8.406;2023-07-13T13:51:29;23.60;92.10
33815;DHT22;20121;51.910;8.406;2023-07-13T13:53:55;24.10;90.70
33815;DHT22;20121;51.910;8.406;2023-07-13T13:56:21;23.90;91.20
33815;DHT22;20121;51.910;8.406;2023-07-13T13:58:47;23.80;91.60
33815;DHT22;20121;51.910;8.406;2023-07-13T14:01:20;23.60;91.90
33815;DHT22;20121;51.910;8.406;2023-07-13T14:03:47;23.40;92.40
33815;DHT22;20121;51.910;8.406;2023-07-13T14:06:19;23.30;93.00
33815;DHT22;20121;51.910;8.406;2023-07-13T14:08:46;23.20;93.70
33815;DHT22;20121;51.910;8.406;2023-07-13T14:11:19;23.00;99.90
33815;DHT22;20121;51.910;8.406;2023-07-13T14:13:49;22.90;93.90
33815;DHT22;20121;51.910;8.406;2023-07-13T14:16:17;22.70;94.90
33815;DHT22;20121;51.910;8.406;2023-07-13T14:18:47;22.50;97.70
33815;DHT22;20121;51.910;8.406;2023-07-13T14:21:14;22.30;99.90
33815;DHT22;20121;51.910;8.406;2023-07-13T14:23:40;22.00;99.90
33815;DHT22;20121;51.910;8.406;2023-07-13T14:26:12;21.70;99.90
33815;DHT22;20121;51.910;8.406;2023-07-13T14:28:42;21.50;99.90
33815;DHT22;20121;51.910;8.406;2023-07-13T14:31:09;21.30;99.90
33815;DHT22;20121;51.910;8.406;2023-07-13T14:33:35;21.10;99.90
33815;DHT22;20121;51.910;8.406;2023-07-13T14:36:01;21.00;99.90
33815;DHT22;20121;51.910;8.406;2023-07-13T14:38:27;20.50;99.90
33815;DHT22;20121;51.910;8.406;2023-07-13T14:40:52;20.90;99.90
33815;DHT22;20121;51.910;8.406;2023-07-13T14:43:18;20.80;99.90
33815;DHT22;20121;51.910;8.406;2023-07-13T14:45:49;20.80;99.90
33815;DHT22;20121;51.910;8.406;2023-07-13T14:48:33;20.70;99.90
33815;DHT22;20121;51.910;8.406;2023-07-13T14:50:59;20.60;99.90
33815;DHT22;20121;51.910;8.406;2023-07-13T14:53:26;20.60;99.90
33815;DHT22;20121;51.910;8.406;2023-07-13T14:55:54;20.50;99.90
33815;DHT22;20121;51.910;8.406;2023-07-13T14:58:20;20.40;99.90
33815;DHT22;20121;51.910;8.406;2023-07-13T15:00:46;20.40;99.90
33815;DHT22;20121;51.910;8.406;2023-07-13T15:03:20;20.00;99.90
33815;DHT22;20121;51.910;8.406;2023-07-13T15:05:50;20.10;99.90
33815;DHT22;20121;51.910;8.406;2023-07-13T15:08:16;19.80;99.90
33815;DHT22;20121;51.910;8.406;2023-07-13T15:10:42;19.70;99.90
33815;DHT22;20121;51.910;8.406;2023-07-13T15:13:21;19.40;99.90
33815;DHT22;20121;51.910;8.406;2023-07-13T15:15:49;19.50;99.90
33815;DHT22;20121;51.910;8.406;2023-07-13T15:18:19;19.20;99.90
33815;DHT22;20121;51.910;8.406;2023-07-13T15:20:47;19.10;99.90
33815;DHT22;20121;51.910;8.406;2023-07-13T15:23:14;19.00;99.90
33815;DHT22;20121;51.910;8.406;2023-07-13T15:25:41;18.90;99.90
33815;DHT22;20121;51.910;8.406;2023-07-13T15:28:07;18.90;99.90
33815;DHT22;20121;51.910;8.406;2023-07-13T15:30:45;18.80;99.90
33815;DHT22;20121;51.910;8.406;2023-07-13T15:33:29;18.70;99.90
33815;DHT22;20121;51.910;8.406;2023-07-13T15:35:56;18.60;99.90
33815;DHT22;20121;51.910;8.406;2023-07-13T15:38:27;18.60;99.90
33815;DHT22;20121;51.910;8.406;2023-07-13T15:40:53;18.60;99.90
33815;DHT22;20121;51.910;8.406;2023-07-13T15:43:19;18.60;99.90
33815;DHT22;20121;51.910;8.406;2023-07-13T15:45:46;18.60;99.90
33815;DHT22;20121;51.910;8.406;2023-07-13T15:48:23;18.60;99.90
33815;DHT22;20121;51.910;8.406;2023-07-13T15:50:53;18.60;99.90
33815;DHT22;20121;51.910;8.406;2023-07-13T15:53:25;18.60;99.90
33815;DHT22;20121;51.910;8.406;2023-07-13T15:55:51;18.60;99.90
33815;DHT22;20121;51.910;8.406;2023-07-13T15:58:17;18.70;99.90
33815;DHT22;20121;51.910;8.406;2023-07-13T16:00:44;18.70;99.90
33815;DHT22;20121;51.910;8.406;2023-07-13T16:03:10;19.00;99.90
33815;DHT22;20121;51.910;8.406;2023-07-13T16:05:37;18.80;99.90
33815;DHT22;20121;51.910;8.406;2023-07-13T16:08:04;18.80;99.90
33815;DHT22;20121;51.910;8.406;2023-07-13T16:10:35;18.80;99.90
33815;DHT22;20121;51.910;8.406;2023-07-13T16:13:10;18.80;99.90
33815;DHT22;20121;51.910;8.406;2023-07-13T16:15:39;18.50;99.90